Time;durP1;ratioP1;P1;durP2;ratioP2;P2;SDS_P1;SDS_P2;PMS_P1;PMS_P2;Temp;Humidity;BMP_temperature;BMP_pressure;BME280_temperature;BME280_humidity;BME280_pressure;Samples;Min_cycle;Max_cycle;Signal;HPM_P1;HPM_P2
2022/06/03 00:03:08;;;;;;;2.30;2.07;;;;;12.00;101483.00;;;;4996474;28;20241;-74
2022/06/03 00:06:21;;;;;;;2.90;2.60;;;;;12.00;101476.00;;;;4996698;28;20376;-72
2022/06/03 00:09:27;;;;;;;4.37;2.60;;;;;12.00;101472.00;;;;4998631;28;20230;-73
2022/06/03 00:12:43;;;;;;;3.33;2.80;;;;;11.90;101458.00;;;;5004187;28;20234;-73
2022/06/03 00:15:52;;;;;;;3.33;3.00;;;;;12.00;101458.00;;;;5000695;28;20233;-72
2022/06/03 00:19:11;;;;;;;3.13;2.70;;;;;12.00;101451.00;;;;5004168;28;20706;-73
2022/06/03 00:22:12;;;;;;;4.83;3.40;;;;;12.00;101448.00;;;;4998335;28;20743;-73
2022/06/03 00:25:22;;;;;;;3.33;2.97;;;;;12.10;101450.00;;;;4998508;28;20237;-74
2022/06/03 00:28:23;;;;;;;3.30;2.70;;;;;12.00;101451.00;;;;5001294;28;20365;-74
2022/06/03 00:31:25;;;;;;;4.73;2.93;;;;;11.90;101447.00;;;;5000769;28;20804;-73
2022/06/03 00:34:40;;;;;;;3.70;2.83;;;;;11.90;101453.00;;;;4996565;28;20246;-71
2022/06/03 00:37:35;;;;;;;2.80;2.50;;;;;11.80;101439.00;;;;5002430;28;20230;-72
2022/06/03 00:40:34;;;;;;;3.20;2.60;;;;;11.80;101439.00;;;;5003582;28;20229;-74
2022/06/03 00:43:33;;;;;;;4.33;2.77;;;;;11.80;101437.00;;;;5004068;28;20230;-72
2022/06/03 00:46:46;;;;;;;4.37;2.77;;;;;11.70;101447.00;;;;5006309;28;20281;-73
2022/06/03 00:49:46;;;;;;;3.00;2.73;;;;;11.70;101440.00;;;;5014929;28;20233;-74
2022/06/03 00:52:54;;;;;;;3.57;2.70;;;;;11.60;101442.00;;;;5015447;28;20494;-74
2022/06/03 00:56:00;;;;;;;3.67;2.80;;;;;11.50;101432.00;;;;5007648;28;20261;-73
2022/06/03 00:59:06;;;;;;;4.60;2.73;;;;;11.50;101432.00;;;;5015736;28;20289;-74
2022/06/03 01:02:09;;;;;;;5.87;2.87;;;;;11.50;101430.00;;;;5010496;28;20321;-75
2022/06/03 01:05:08;;;;;;;3.70;2.80;;;;;11.50;101440.00;;;;5011371;28;20937;-76
2022/06/03 01:08:05;;;;;;;3.57;2.70;;;;;11.40;101435.00;;;;5014325;28;20222;-74
2022/06/03 01:11:15;;;;;;;3.80;2.77;;;;;11.40;101434.00;;;;5010069;28;20246;-75
2022/06/03 01:14:18;;;;;;;3.83;3.00;;;;;11.40;101424.00;;;;5005282;28;20713;-76
2022/06/03 01:17:13;;;;;;;4.20;3.50;;;;;11.40;101427.00;;;;5004239;28;20242;-74
2022/06/03 01:20:18;;;;;;;3.87;3.33;;;;;11.50;101432.00;;;;4998185;28;20222;-75
2022/06/03 01:23:40;;;;;;;4.03;3.63;;;;;11.40;101418.00;;;;5004109;28;20362;-74
2022/06/03 01:26:34;;;;;;;4.73;4.07;;;;;11.50;101426.00;;;;4969956;28;20229;-73
2022/06/03 01:29:38;;;;;;;5.87;4.00;;;;;11.50;101419.00;;;;5008272;28;20617;-73
2022/06/03 01:32:41;;;;;;;5.37;4.00;;;;;11.60;101419.00;;;;5006735;28;20226;-74
2022/06/03 01:35:53;;;;;;;6.37;4.60;;;;;11.60;101418.00;;;;5006134;28;20706;-74
2022/06/03 01:38:58;;;;;;;6.30;5.07;;;;;11.70;101409.00;;;;5005493;28;20826;-73
2022/06/03 01:42:00;;;;;;;5.37;4.53;;;;;11.80;101420.00;;;;5000991;28;20578;-73
2022/06/03 01:45:00;;;;;;;6.13;4.57;;;;;11.80;101413.00;;;;5002600;28;20252;-74
2022/06/03 01:48:12;;;;;;;6.17;5.20;;;;;11.80;101408.00;;;;5006695;28;20666;-74
2022/06/03 01:51:30;;;;;;;6.37;4.60;;;;;11.90;101403.00;;;;5002228;28;20252;-74
2022/06/03 01:54:55;;;;;;;5.80;4.90;;;;;11.90;101410.00;;;;4971321;28;20369;-75
2022/06/03 01:57:59;;;;;;;6.63;5.20;;;;;12.10;101417.00;;;;4978026;28;20233;-72
2022/06/03 02:00:56;;;;;;;6.83;4.73;;;;;12.20;101413.00;;;;5003986;28;20225;-76
2022/06/03 02:04:04;;;;;;;6.17;4.87;;;;;12.00;101413.00;;;;5007470;28;20575;-75
2022/06/03 02:07:39;;;;;;;6.63;4.97;;;;;12.00;101410.00;;;;5006716;28;20707;-75
2022/06/03 02:10:54;;;;;;;6.30;4.80;;;;;12.10;101402.00;;;;5001725;28;20277;-76
2022/06/03 02:14:04;;;;;;;5.70;4.67;;;;;12.30;101399.00;;;;5004239;28;20226;-75
2022/06/03 02:17:22;;;;;;;6.87;5.00;;;;;12.10;101397.00;;;;5006101;28;20369;-75
2022/06/03 02:20:52;;;;;;;7.43;4.90;;;;;12.10;101405.00;;;;5002284;28;20229;-76
2022/06/03 02:24:02;;;;;;;6.37;4.93;;;;;12.10;101389.00;;;;5004886;28;20237;-75
2022/06/03 02:27:18;;;;;;;7.37;4.90;;;;;12.20;101389.00;;;;4998445;28;20237;-74
2022/06/03 02:30:27;;;;;;;6.33;4.80;;;;;12.30;101392.00;;;;5003670;28;20960;-74
2022/06/03 02:33:45;;;;;;;7.77;5.27;;;;;12.20;101385.00;;;;5002086;28;20374;-73
2022/06/03 02:36:58;;;;;;;6.53;5.10;;;;;12.30;101381.00;;;;5005686;28;20230;-73
2022/06/03 02:40:28;;;;;;;6.17;4.70;;;;;12.30;101387.00;;;;5004561;28;20300;-72
2022/06/03 02:43:46;;;;;;;5.60;5.00;;;;;12.40;101374.00;;;;5004389;28;20234;-73
2022/06/03 02:47:08;;;;;;;5.43;4.33;;;;;12.30;101369.00;;;;5001303;28;20248;-74
2022/06/03 02:50:34;;;;;;;8.93;5.50;;;;;12.30;101368.00;;;;4987180;28;20702;-74
2022/06/03 02:53:56;;;;;;;9.33;5.10;;;;;12.20;101372.00;;;;5000422;28;20217;-74
2022/06/03 02:57:05;;;;;;;6.47;4.90;;;;;12.20;101372.00;;;;5003582;28;20236;-73
2022/06/03 03:00:13;;;;;;;7.40;4.90;;;;;12.20;101377.00;;;;4999241;28;20745;-74
2022/06/03 03:03:17;;;;;;;6.33;4.87;;;;;12.00;101365.00;;;;4999776;28;20818;-75
2022/06/03 03:06:42;;;;;;;6.13;5.20;;;;;12.00;101366.00;;;;4999564;28;20806;-77
2022/06/03 03:09:57;;;;;;;6.17;4.83;;;;;12.00;101364.00;;;;5002185;28;20304;-74
2022/06/03 03:13:21;;;;;;;6.40;5.17;;;;;12.10;101364.00;;;;4999649;28;20230;-74
2022/06/03 03:16:43;;;;;;;6.23;4.97;;;;;12.00;101355.00;;;;4998076;28;20339;-73
2022/06/03 03:19:44;;;;;;;8.77;5.07;;;;;11.90;101358.00;;;;4995846;28;20234;-76
2022/06/03 03:22:45;;;;;;;7.10;5.23;;;;;11.90;101344.00;;;;5003494;28;20224;-73
2022/06/03 03:25:45;;;;;;;6.10;5.00;;;;;11.90;101351.00;;;;4994789;28;20594;-73
2022/06/03 03:28:50;;;;;;;6.47;4.83;;;;;11.80;101360.00;;;;5005208;28;20358;-75
2022/06/03 03:31:53;;;;;;;6.53;5.07;;;;;11.80;101348.00;;;;4999498;28;20921;-74
2022/06/03 03:35:15;;;;;;;6.93;4.97;;;;;11.70;101349.00;;;;5004475;28;20600;-75
2022/06/03 03:38:54;;;;;;;5.97;4.50;;;;;11.60;101366.00;;;;4998621;28;20223;-73
2022/06/03 03:42:07;;;;;;;5.73;4.80;;;;;11.50;101370.00;;;;4998918;28;20309;-75
2022/06/03 03:45:24;;;;;;;6.90;5.20;;;;;11.50;101369.00;;;;4994301;28;20231;-74
2022/06/03 03:48:51;;;;;;;6.23;5.10;;;;;11.50;101366.00;;;;4999265;28;20241;-72
2022/06/03 03:51:57;;;;;;;6.23;4.93;;;;;11.50;101355.00;;;;4996661;28;20226;-75
2022/06/03 03:55:04;;;;;;;7.57;5.23;;;;;11.50;101371.00;;;;5003942;28;20230;-73
2022/06/03 03:58:21;;;;;;;6.47;5.30;;;;;11.40;101364.00;;;;5003446;28;20274;-74
2022/06/03 04:01:39;;;;;;;7.60;5.23;;;;;11.40;101356.00;;;;4997966;28;20312;-75
2022/06/03 04:04:53;;;;;;;6.60;4.60;;;;;11.50;101349.00;;;;5003205;28;20232;-72
2022/06/03 04:08:13;;;;;;;7.40;5.10;;;;;11.60;101360.00;;;;5003579;28;20242;-73
2022/06/03 04:11:50;;;;;;;11.03;5.03;;;;;11.50;101359.00;;;;4999179;28;20386;-74
2022/06/03 04:15:07;;;;;;;11.40;4.83;;;;;11.60;101349.00;;;;4908740;28;20230;-76
2022/06/03 04:18:27;;;;;;;9.83;4.83;;;;;11.70;101349.00;;;;4998241;28;20248;-75
2022/06/03 04:21:31;;;;;;;7.13;4.50;;;;;11.70;101360.00;;;;4994220;28;20738;-74
2022/06/03 04:24:56;;;;;;;9.10;4.60;;;;;11.70;101355.00;;;;5000062;28;20233;-73
2022/06/03 04:28:22;;;;;;;6.83;4.67;;;;;11.80;101345.00;;;;4994413;28;20235;-74
2022/06/03 04:31:53;;;;;;;6.33;4.73;;;;;11.80;101330.00;;;;4997524;28;20234;-76
2022/06/03 04:35:22;;;;;;;5.77;4.90;;;;;11.90;101337.00;;;;5005235;28;20241;-76
2022/06/03 04:38:38;;;;;;;6.13;4.70;;;;;12.10;101326.00;;;;5002750;28;20229;-75
2022/06/03 04:42:17;;;;;;;5.80;4.77;;;;;12.20;101338.00;;;;4974045;28;20353;-72
2022/06/03 04:45:45;;;;;;;6.40;4.90;;;;;12.30;101328.00;;;;5003488;28;20237;-74
2022/06/03 04:49:07;;;;;;;7.40;5.07;;;;;12.40;101339.00;;;;4945959;28;20303;-72
2022/06/03 04:52:27;;;;;;;8.83;5.17;;;;;12.40;101326.00;;;;5005384;28;20221;-73
2022/06/03 04:56:07;;;;;;;7.60;5.13;;;;;12.50;101321.00;;;;4967274;28;20237;-76
2022/06/03 04:59:20;;;;;;;6.60;4.83;;;;;12.50;101317.00;;;;5008434;28;20261;-75
2022/06/03 05:02:48;;;;;;;7.07;4.97;;;;;12.60;101324.00;;;;5003708;28;20234;-75
2022/06/03 05:06:20;;;;;;;6.37;5.20;;;;;12.70;101323.00;;;;5003719;28;20856;-73
2022/06/03 05:09:53;;;;;;;6.17;4.90;;;;;12.70;101320.00;;;;5006542;28;20237;-74
2022/06/03 05:13:15;;;;;;;7.00;4.50;;;;;12.80;101316.00;;;;5007345;28;20945;-74
2022/06/03 05:16:35;;;;;;;5.77;4.63;;;;;12.90;101309.00;;;;5003583;28;20234;-76
2022/06/03 05:19:51;;;;;;;5.83;4.77;;;;;12.90;101317.00;;;;4974532;28;20237;-74
2022/06/03 05:22:55;;;;;;;7.23;4.83;;;;;13.00;101319.00;;;;5003971;28;20249;-74
2022/06/03 05:26:37;;;;;;;7.40;4.87;;;;;13.10;101317.00;;;;5004188;28;20690;-74
2022/06/03 05:29:50;;;;;;;7.17;4.80;;;;;13.10;101316.00;;;;5002081;28;20234;-71
2022/06/03 05:33:02;;;;;;;8.07;5.00;;;;;13.20;101331.00;;;;5003421;28;20257;-72
2022/06/03 05:36:36;;;;;;;5.30;4.47;;;;;13.40;101322.00;;;;5003897;28;20300;-73
2022/06/03 05:39:53;;;;;;;5.63;4.43;;;;;13.40;101311.00;;;;4995744;28;20602;-73
2022/06/03 05:43:06;;;;;;;6.77;4.77;;;;;13.50;101308.00;;;;5001113;28;20230;-74
2022/06/03 05:46:11;;;;;;;5.33;4.40;;;;;13.50;101308.00;;;;5003427;28;20250;-74
2022/06/03 05:49:10;;;;;;;6.27;4.60;;;;;13.70;101312.00;;;;4999913;28;20284;-75
2022/06/03 05:52:17;;;;;;;6.40;4.60;;;;;13.60;101296.00;;;;5005006;28;20222;-75
2022/06/03 05:55:19;;;;;;;6.00;4.47;;;;;13.60;101305.00;;;;5003666;28;20234;-74
2022/06/03 05:58:30;;;;;;;7.67;4.63;;;;;13.90;101299.00;;;;4999641;28;20632;-75
2022/06/03 06:01:41;;;;;;;7.30;4.50;;;;;13.90;101299.00;;;;4996235;28;20261;-74
2022/06/03 06:04:44;;;;;;;9.47;4.60;;;;;14.00;101303.00;;;;5006327;28;20238;-73
2022/06/03 06:07:35;;;;;;;6.40;4.33;;;;;14.10;101303.00;;;;5002201;28;20344;-72
2022/06/03 06:10:37;;;;;;;5.20;4.20;;;;;14.20;101306.00;;;;5004270;28;20271;-76
2022/06/03 06:14:03;;;;;;;5.53;4.27;;;;;14.20;101298.00;;;;5002354;28;20734;-76
2022/06/03 06:16:49;;;;;;;5.70;4.60;;;;;14.30;101306.00;;;;5005008;28;20237;-75
2022/06/03 06:19:47;;;;;;;5.10;4.00;;;;;14.50;101289.00;;;;5007182;28;20226;-75
2022/06/03 06:22:45;;;;;;;4.87;4.10;;;;;14.50;101306.00;;;;5004061;28;20226;-74
2022/06/03 06:25:38;;;;;;;7.40;4.60;;;;;14.60;101293.00;;;;5005980;28;20249;-74
2022/06/03 06:28:47;;;;;;;4.63;4.03;;;;;14.60;101296.00;;;;5002817;28;20272;-75
2022/06/03 06:32:09;;;;;;;8.83;4.80;;;;;14.70;101293.00;;;;5003643;28;20357;-74
2022/06/03 06:35:16;;;;;;;9.13;4.17;;;;;14.80;101300.00;;;;5003755;28;20277;-74
2022/06/03 06:38:11;;;;;;;5.67;4.53;;;;;14.80;101291.00;;;;4998141;28;20281;-75
2022/06/03 06:41:15;;;;;;;7.47;4.90;;;;;14.90;101299.00;;;;5004855;28;20226;-71
2022/06/03 06:44:09;;;;;;;7.17;4.40;;;;;15.10;101299.00;;;;4993254;28;20242;-74
2022/06/03 06:47:04;;;;;;;7.63;5.00;;;;;15.20;101295.00;;;;5004727;28;20635;-71
2022/06/03 06:50:03;;;;;;;5.73;4.37;;;;;15.30;101293.00;;;;5005900;28;20249;-73
2022/06/03 06:52:59;;;;;;;6.30;4.70;;;;;15.30;101295.00;;;;5004701;28;20711;-73
2022/06/03 06:55:56;;;;;;;5.57;4.63;;;;;15.60;101295.00;;;;5005081;28;20257;-73
2022/06/03 06:58:50;;;;;;;5.07;4.07;;;;;15.60;101298.00;;;;4993933;28;20236;-73
2022/06/03 07:01:41;;;;;;;5.70;4.50;;;;;15.80;101306.00;;;;5005917;28;20227;-71
2022/06/03 07:04:31;;;;;;;7.83;4.20;;;;;15.90;101306.00;;;;5005312;28;20226;-72
2022/06/03 07:07:24;;;;;;;5.60;4.70;;;;;15.90;101306.00;;;;5004795;28;20616;-70
2022/06/03 07:10:16;;;;;;;4.43;3.97;;;;;16.10;101308.00;;;;5004029;28;20225;-73
2022/06/03 07:13:10;;;;;;;5.20;3.87;;;;;16.20;101306.00;;;;5005579;28;20214;-73
2022/06/03 07:16:08;;;;;;;7.60;4.10;;;;;16.40;101302.00;;;;4993897;28;20280;-72
2022/06/03 07:22:16;;;;;;;5.20;4.10;;;;;16.50;101299.00;;;;5001961;28;20680;-72
2022/06/03 07:25:12;;;;;;;5.17;4.27;;;;;16.60;101300.00;;;;5004189;28;20299;-75
2022/06/03 07:28:03;;;;;;;6.77;4.30;;;;;16.80;101296.00;;;;4999526;28;20306;-74
2022/06/03 07:30:53;;;;;;;4.43;3.80;;;;;17.10;101300.00;;;;5002415;28;20223;-72
2022/06/03 07:33:50;;;;;;;5.10;4.30;;;;;17.20;101304.00;;;;5003365;28;20224;-71
2022/06/03 07:36:42;;;;;;;5.00;3.90;;;;;17.20;101305.00;;;;5002015;28;20326;-72
2022/06/03 07:39:43;;;;;;;5.03;4.40;;;;;17.30;101297.00;;;;5004715;28;20397;-74
2022/06/03 07:42:41;;;;;;;4.77;3.70;;;;;17.40;101297.00;;;;5000220;28;20265;-72
2022/06/03 07:45:36;;;;;;;5.37;4.00;;;;;17.70;101290.00;;;;5000295;28;20380;-73
2022/06/03 07:48:25;;;;;;;5.57;3.73;;;;;17.80;101292.00;;;;4995188;28;20225;-73
2022/06/03 07:51:20;;;;;;;5.00;3.83;;;;;18.10;101292.00;;;;4999064;28;20240;-73
2022/06/03 07:54:12;;;;;;;4.80;3.40;;;;;18.10;101291.00;;;;4990956;28;20241;-72
2022/06/03 07:57:04;;;;;;;5.60;3.33;;;;;18.50;101288.00;;;;5002907;28;20230;-70
2022/06/03 07:59:56;;;;;;;5.77;4.07;;;;;18.70;101280.00;;;;5003312;28;20501;-72
2022/06/03 08:02:43;;;;;;;4.57;3.80;;;;;18.80;101280.00;;;;5003911;28;20237;-74
2022/06/03 08:05:31;;;;;;;6.13;4.00;;;;;18.80;101268.00;;;;4991437;28;20241;-73
2022/06/03 08:11:30;;;;;;;3.87;3.27;;;;;19.10;101274.00;;;;4999451;28;20233;-71
2022/06/03 08:14:27;;;;;;;3.70;3.30;;;;;19.30;101275.00;;;;5004973;28;20242;-70
2022/06/03 08:17:13;;;;;;;4.10;3.20;;;;;19.30;101282.00;;;;5000112;28;20805;-68
2022/06/03 08:20:00;;;;;;;4.13;3.03;;;;;19.50;101282.00;;;;5004753;28;20730;-73
2022/06/03 08:22:47;;;;;;;3.57;3.13;;;;;19.80;101279.00;;;;5000791;28;20277;-70
2022/06/03 08:25:39;;;;;;;4.53;3.50;;;;;19.90;101271.00;;;;5003634;28;20250;-70
2022/06/03 08:28:31;;;;;;;3.70;3.27;;;;;19.80;101277.00;;;;5001697;28;20365;-73
2022/06/03 08:31:21;;;;;;;4.50;3.30;;;;;20.10;101277.00;;;;5002601;28;20258;-71
2022/06/03 08:34:13;;;;;;;4.13;3.60;;;;;20.30;101264.00;;;;5003913;28;20229;-70
2022/06/03 08:37:00;;;;;;;4.50;3.50;;;;;20.30;101270.00;;;;4995809;28;20936;-68
2022/06/03 08:39:49;;;;;;;3.67;3.27;;;;;20.50;101276.00;;;;4998346;28;20246;-71
2022/06/03 08:42:46;;;;;;;4.60;3.00;;;;;20.60;101257.00;;;;5004018;28;20748;-70
2022/06/03 08:45:40;;;;;;;4.30;3.17;;;;;20.70;101255.00;;;;4999337;28;20634;-71
2022/06/03 08:48:31;;;;;;;4.00;3.20;;;;;21.00;101256.00;;;;4998215;28;20250;-72
2022/06/03 08:51:22;;;;;;;3.43;3.00;;;;;21.20;101245.00;;;;4997824;28;20226;-70
2022/06/03 08:54:21;;;;;;;2.50;2.30;;;;;21.00;101247.00;;;;4992671;28;20718;-68
2022/06/03 08:57:11;;;;;;;5.43;3.07;;;;;21.30;101248.00;;;;4996122;28;20831;-66
2022/06/03 09:00:06;;;;;;;4.43;2.93;;;;;21.50;101251.00;;;;5004507;28;20234;-68
2022/06/03 09:02:58;;;;;;;4.77;2.50;;;;;21.90;101254.00;;;;4997607;28;20258;-68
2022/06/03 09:05:52;;;;;;;3.20;2.90;;;;;21.80;101252.00;;;;4997337;28;20641;-68
2022/06/03 09:08:45;;;;;;;3.17;2.70;;;;;21.80;101245.00;;;;5000318;28;20246;-67
2022/06/03 09:11:39;;;;;;;3.03;2.67;;;;;22.10;101252.00;;;;4997053;28;20234;-69
2022/06/03 09:14:27;;;;;;;4.23;2.70;;;;;22.40;101246.00;;;;5001473;28;20254;-68
2022/06/03 09:17:32;;;;;;;4.47;3.50;;;;;22.70;101241.00;;;;5001944;28;20617;-67
2022/06/03 09:20:23;;;;;;;3.83;3.00;;;;;22.80;101237.00;;;;4998898;28;20606;-68
2022/06/03 09:23:14;;;;;;;3.50;3.00;;;;;22.70;101253.00;;;;5004061;28;20764;-68
2022/06/03 09:26:01;;;;;;;3.10;2.80;;;;;22.90;101256.00;;;;5006851;28;20286;-66
2022/06/03 09:28:48;;;;;;;4.00;2.87;;;;;23.00;101255.00;;;;5006913;28;20237;-69
2022/06/03 09:31:37;;;;;;;2.90;2.60;;;;;23.00;101249.00;;;;5006337;28;20619;-68
2022/06/03 09:34:35;;;;;;;3.77;2.60;;;;;22.90;101242.00;;;;5001420;28;20765;-68
2022/06/03 09:37:25;;;;;;;3.10;2.80;;;;;23.20;101253.00;;;;5000811;28;20252;-68
2022/06/03 09:40:18;;;;;;;2.87;2.57;;;;;23.30;101244.00;;;;5003681;28;20322;-68
2022/06/03 09:43:13;;;;;;;2.57;2.30;;;;;23.20;101240.00;;;;5005951;28;20273;-68
2022/06/03 09:46:04;;;;;;;2.40;2.20;;;;;23.30;101242.00;;;;5005023;28;20260;-69
2022/06/03 09:48:51;;;;;;;2.80;2.50;;;;;23.60;101254.00;;;;5001889;28;20229;-69
2022/06/03 09:51:57;;;;;;;2.93;2.67;;;;;23.70;101241.00;;;;5002936;28;20601;-70
2022/06/03 09:54:45;;;;;;;2.40;2.20;;;;;23.90;101250.00;;;;5000609;28;20724;-71
2022/06/03 09:57:35;;;;;;;2.33;2.13;;;;;24.10;101243.00;;;;5000277;28;20242;-69
2022/06/03 10:00:25;;;;;;;2.53;1.93;;;;;24.20;101238.00;;;;4999186;28;20229;-72
2022/06/03 10:03:12;;;;;;;2.53;2.30;;;;;24.60;101246.00;;;;5002533;28;20241;-72
2022/06/03 10:06:00;;;;;;;2.50;2.30;;;;;24.70;101234.00;;;;5000167;28;20241;-70
2022/06/03 10:18:04;;;;;;;2.97;2.67;;;;;24.80;101229.00;;;;4999757;28;20230;-71
2022/06/03 10:20:53;;;;;;;3.10;2.23;;;;;24.70;101224.00;;;;5003480;28;20292;-68
2022/06/03 10:23:44;;;;;;;2.50;1.90;;;;;25.00;101230.00;;;;5002293;28;20230;-70
2022/06/03 10:26:49;;;;;;;2.20;2.00;;;;;25.10;101225.00;;;;4998782;28;20316;-73
2022/06/03 10:29:47;;;;;;;2.80;2.60;;;;;25.00;101221.00;;;;4999961;28;20233;-71
2022/06/03 10:32:34;;;;;;;5.73;2.20;;;;;25.00;101222.00;;;;4998688;28;20891;-73
2022/06/03 10:35:26;;;;;;;2.20;2.00;;;;;25.00;101205.00;;;;5003457;28;20253;-69
2022/06/03 10:38:16;;;;;;;2.20;2.00;;;;;25.10;101214.00;;;;5000518;28;20249;-70
2022/06/03 10:41:05;;;;;;;2.13;1.93;;;;;25.40;101206.00;;;;5001583;28;20238;-72
2022/06/03 10:43:52;;;;;;;2.20;1.90;;;;;25.50;101201.00;;;;5000530;28;20238;-69
2022/06/03 10:46:40;;;;;;;8.23;2.10;;;;;25.50;101198.00;;;;4994610;28;20329;-70
2022/06/03 10:49:38;;;;;;;4.40;2.00;;;;;25.50;101203.00;;;;4997627;28;21757;-71
2022/06/03 11:01:59;;;;;;;5.20;2.07;;;;;25.90;101194.00;;;;5001650;28;20825;-69
2022/06/03 11:04:51;;;;;;;4.33;2.17;;;;;25.80;101192.00;;;;4998830;28;20230;-71
2022/06/03 11:07:37;;;;;;;3.77;2.10;;;;;26.00;101180.00;;;;5000771;28;20237;-72
2022/06/03 11:10:28;;;;;;;2.57;2.37;;;;;26.20;101200.00;;;;4994858;28;20374;-70
2022/06/03 11:13:38;;;;;;;2.30;2.10;;;;;26.00;101201.00;;;;4998052;28;20233;-72
2022/06/03 11:16:27;;;;;;;2.40;2.20;;;;;25.50;101193.00;;;;5002449;28;20281;-70
2022/06/03 11:19:19;;;;;;;2.67;2.40;;;;;25.20;101203.00;;;;5001474;28;20234;-71
2022/06/03 11:22:23;;;;;;;2.70;2.50;;;;;25.20;101185.00;;;;4997144;28;20234;-71
2022/06/03 11:25:14;;;;;;;3.50;2.00;;;;;25.60;101189.00;;;;5001694;28;20241;-70
2022/06/03 11:28:05;;;;;;;2.70;2.40;;;;;26.10;101170.00;;;;4994361;28;20238;-70
2022/06/03 11:30:55;;;;;;;4.27;2.10;;;;;26.10;101173.00;;;;4997587;28;20286;-72
2022/06/03 11:33:49;;;;;;;2.63;2.43;;;;;26.20;101177.00;;;;4997458;28;20226;-71
2022/06/03 11:36:42;;;;;;;2.47;2.27;;;;;26.40;101179.00;;;;4995343;28;20226;-70
2022/06/03 11:39:34;;;;;;;2.60;2.40;;;;;26.50;101185.00;;;;4994461;28;21936;-71
2022/06/03 11:42:28;;;;;;;2.40;2.20;;;;;26.90;101179.00;;;;4995136;28;20226;-71
2022/06/03 11:45:18;;;;;;;3.00;2.10;;;;;27.20;101161.00;;;;5001443;28;23732;-71
2022/06/03 11:48:10;;;;;;;4.30;2.40;;;;;27.60;101174.00;;;;4996168;28;20229;-71
2022/06/03 11:50:58;;;;;;;2.43;2.23;;;;;27.50;101169.00;;;;5002210;28;20362;-69
2022/06/03 11:53:49;;;;;;;2.60;2.40;;;;;27.80;101175.00;;;;4995288;28;20719;-70
2022/06/03 11:56:36;;;;;;;5.13;2.40;;;;;27.70;101165.00;;;;4998742;28;20281;-72
2022/06/03 11:59:31;;;;;;;2.67;2.30;;;;;27.70;101162.00;;;;4996020;28;20226;-72
2022/06/03 12:02:25;;;;;;;3.37;2.20;;;;;27.30;101167.00;;;;5002042;28;20217;-69
2022/06/03 12:05:18;;;;;;;2.92;2.00;;;;;27.20;101163.00;;;;5002258;28;20251;-71
2022/06/03 12:08:10;;;;;;;3.13;2.83;;;;;26.80;101167.00;;;;4996027;28;20246;-72
2022/06/03 12:11:04;;;;;;;3.88;2.30;;;;;26.70;101171.00;;;;5000662;28;21683;-72
2022/06/03 12:14:11;;;;;;;2.58;2.38;;;;;26.50;101161.00;;;;5002951;28;20305;-71
2022/06/03 12:17:00;;;;;;;2.90;2.70;;;;;26.60;101176.00;;;;4998809;28;20697;-70
2022/06/03 12:19:49;;;;;;;3.50;2.60;;;;;26.40;101154.00;;;;4996599;28;20231;-70
2022/06/03 12:22:41;;;;;;;2.60;2.40;;;;;26.20;101165.00;;;;4996052;28;20241;-70
2022/06/03 12:26:07;;;;;;;3.30;2.47;;;;;26.20;101162.00;;;;4991862;28;20233;-71
2022/06/03 12:28:56;;;;;;;3.10;2.60;;;;;26.60;101168.00;;;;5000418;28;20327;-70
2022/06/03 12:31:45;;;;;;;2.57;2.37;;;;;26.70;101170.00;;;;4998427;28;20312;-70
2022/06/03 12:34:31;;;;;;;4.83;2.57;;;;;26.40;101168.00;;;;4994994;28;20218;-72
2022/06/03 12:37:26;;;;;;;3.50;3.00;;;;;26.20;101158.00;;;;5001118;28;20253;-71
2022/06/03 12:40:25;;;;;;;3.23;2.70;;;;;26.10;101157.00;;;;4997070;28;20231;-68
2022/06/03 12:43:24;;;;;;;2.78;2.58;;;;;26.10;101153.00;;;;4998370;28;20229;-70
2022/06/03 12:46:31;;;;;;;3.60;2.93;;;;;26.10;101152.00;;;;5000646;28;20257;-72
2022/06/03 12:49:39;;;;;;;3.40;2.20;;;;;26.30;101155.00;;;;4999071;28;20281;-70
2022/06/03 12:52:39;;;;;;;3.57;3.00;;;;;27.30;101157.00;;;;4994656;28;20226;-73
2022/06/03 12:55:27;;;;;;;4.47;2.83;;;;;27.60;101152.00;;;;5001537;28;20221;-73
2022/06/03 12:58:31;;;;;;;2.90;2.60;;;;;28.00;101157.00;;;;5005234;28;20368;-69
2022/06/03 13:01:49;;;;;;;2.73;2.53;;;;;27.20;101151.00;;;;5004671;28;20226;-69
2022/06/03 13:05:06;;;;;;;3.10;2.80;;;;;26.70;101154.00;;;;4975130;28;20234;-65
2022/06/03 13:08:06;;;;;;;2.80;2.60;;;;;26.60;101151.00;;;;5002758;28;20940;-67
2022/06/03 13:11:00;;;;;;;3.27;2.57;;;;;26.70;101142.00;;;;4998586;28;20234;-70
2022/06/03 13:14:06;;;;;;;3.27;2.70;;;;;27.10;101140.00;;;;5003732;28;20277;-70
2022/06/03 13:16:52;;;;;;;2.40;2.20;;;;;27.30;101131.00;;;;5006850;28;20726;-70
2022/06/03 13:19:44;;;;;;;3.20;2.47;;;;;26.90;101129.00;;;;5002493;28;20230;-69
2022/06/03 13:22:47;;;;;;;2.60;2.40;;;;;26.70;101129.00;;;;5001445;28;20274;-69
2022/06/03 13:25:36;;;;;;;3.73;2.60;;;;;26.50;101132.00;;;;4995752;28;20230;-69
2022/06/03 13:28:38;;;;;;;2.40;2.20;;;;;26.30;101130.00;;;;4997819;28;20230;-69
2022/06/03 13:31:26;;;;;;;2.60;2.40;;;;;26.30;101140.00;;;;4991676;28;20711;-69
2022/06/03 13:34:19;;;;;;;2.63;2.43;;;;;26.10;101136.00;;;;4996082;28;20233;-70
2022/06/03 13:37:45;;;;;;;2.87;2.57;;;;;26.20;101146.00;;;;4990561;28;20246;-69
2022/06/03 13:40:40;;;;;;;3.30;2.47;;;;;26.20;101141.00;;;;4907016;29;20822;-69
2022/06/03 13:43:25;;;;;;;3.27;2.50;;;;;25.90;101140.00;;;;4999516;28;20233;-69
2022/06/03 13:46:25;;;;;;;2.33;2.13;;;;;25.90;101139.00;;;;4996455;28;20239;-66
2022/06/03 13:49:23;;;;;;;2.87;2.10;;;;;26.70;101133.00;;;;5001162;28;20241;-72
2022/06/03 13:52:14;;;;;;;2.80;2.50;;;;;27.80;101137.00;;;;4995312;28;20237;-70
2022/06/03 13:55:06;;;;;;;2.37;2.10;;;;;27.60;101147.00;;;;5003297;28;20365;-72
2022/06/03 13:58:00;;;;;;;3.83;2.53;;;;;27.50;101153.00;;;;4994905;28;20405;-68
2022/06/03 14:00:59;;;;;;;3.60;2.50;;;;;27.80;101152.00;;;;5004193;28;20664;-70
2022/06/03 14:03:56;;;;;;;2.58;2.38;;;;;28.70;101154.00;;;;5005249;28;20233;-72
2022/06/03 14:06:52;;;;;;;2.50;2.30;;;;;28.70;101149.00;;;;4999056;28;20637;-73
2022/06/03 14:09:46;;;;;;;2.45;2.22;;;;;29.10;101154.00;;;;5001443;28;20238;-71
2022/06/03 14:12:37;;;;;;;2.28;2.08;;;;;28.90;101146.00;;;;4999773;28;20221;-71
2022/06/03 14:15:32;;;;;;;2.53;2.33;;;;;28.80;101149.00;;;;4998161;28;20266;-74
2022/06/03 14:18:46;;;;;;;2.50;2.30;;;;;29.60;101147.00;;;;5005499;28;20257;-73
2022/06/03 14:21:54;;;;;;;2.45;2.20;;;;;29.40;101145.00;;;;5000831;28;20242;-72
2022/06/03 14:24:48;;;;;;;2.28;2.10;;;;;29.40;101152.00;;;;5000050;28;20273;-72
2022/06/03 14:27:40;;;;;;;2.67;2.47;;;;;29.40;101156.00;;;;5002779;28;20238;-71
2022/06/03 14:30:38;;;;;;;2.85;2.20;;;;;29.10;101145.00;;;;5006213;28;20274;-71
2022/06/03 14:33:38;;;;;;;2.45;2.25;;;;;28.90;101148.00;;;;4999005;28;20358;-72
2022/06/03 14:36:27;;;;;;;2.60;2.40;;;;;28.70;101149.00;;;;5002136;28;20301;-67
2022/06/03 14:39:19;;;;;;;3.30;2.38;;;;;28.60;101149.00;;;;4999976;28;20234;-71
2022/06/03 14:42:08;;;;;;;3.10;2.10;;;;;28.40;101143.00;;;;4999232;28;20253;-71
2022/06/03 14:44:54;;;;;;;2.47;2.28;;;;;27.50;101148.00;;;;5001568;28;20237;-69
2022/06/03 14:47:47;;;;;;;3.03;2.17;;;;;27.30;101148.00;;;;5000235;28;20320;-68
2022/06/03 14:50:37;;;;;;;2.95;2.13;;;;;26.90;101143.00;;;;4998096;28;20246;-73
2022/06/03 14:53:29;;;;;;;2.42;2.20;;;;;27.30;101146.00;;;;5003976;28;20229;-71
2022/06/03 14:56:29;;;;;;;2.70;2.50;;;;;27.70;101137.00;;;;4978138;28;20234;-71
2022/06/03 14:59:25;;;;;;;2.72;2.30;;;;;29.10;101145.00;;;;4998676;28;20230;-69
2022/06/03 15:02:17;;;;;;;4.00;2.30;;;;;29.20;101143.00;;;;5001424;28;20805;-71
2022/06/03 15:05:13;;;;;;;2.92;2.33;;;;;28.50;101142.00;;;;5000078;28;20234;-71
2022/06/03 15:08:05;;;;;;;3.60;2.55;;;;;27.90;101142.00;;;;5001894;28;20289;-72
2022/06/03 15:11:00;;;;;;;2.63;2.42;;;;;27.60;101132.00;;;;5002020;28;20377;-71
2022/06/03 15:13:48;;;;;;;2.40;2.20;;;;;28.30;101135.00;;;;5003235;28;20284;-70
2022/06/03 15:16:34;;;;;;;2.63;2.42;;;;;29.70;101143.00;;;;4994534;28;20230;-71
2022/06/03 15:19:35;;;;;;;2.25;2.05;;;;;30.00;101144.00;;;;5002618;28;20697;-73
2022/06/03 15:22:28;;;;;;;2.33;2.13;;;;;29.10;101143.00;;;;4996060;28;20231;-73
2022/06/03 15:25:18;;;;;;;3.28;2.60;;;;;28.50;101137.00;;;;5002157;28;20229;-69